createdAt,value
2023-01-13T00:01:49.385Z,1.90
2023-01-13T00:04:21.205Z,1.20
2023-01-13T00:06:49.724Z,2.73
2023-01-13T00:09:17.768Z,1.10
2023-01-13T00:11:45.932Z,0.70
2023-01-13T00:14:14.254Z,0.67
2023-01-13T00:16:44.672Z,1.00
2023-01-13T00:19:15.804Z,3.13
2023-01-13T00:21:45.342Z,1.80
2023-01-13T00:24:16.252Z,1.10
2023-01-13T00:26:50.538Z,0.70
2023-01-13T00:29:30.628Z,0.57
2023-01-13T00:31:58.838Z,1.20
2023-01-13T00:34:29.994Z,1.47
2023-01-13T00:36:59.607Z,0.50
2023-01-13T00:39:29.499Z,0.80
2023-01-13T00:42:16.115Z,1.80
2023-01-13T00:44:45.256Z,0.60
2023-01-13T00:47:13.370Z,1.20
2023-01-13T00:49:41.558Z,1.43
2023-01-13T00:52:11.561Z,0.77
2023-01-13T00:54:47.071Z,1.60
2023-01-13T00:57:16.127Z,3.03
2023-01-13T00:59:44.289Z,1.13
2023-01-13T01:02:12.798Z,2.03
2023-01-13T01:04:41.880Z,2.80
2023-01-13T01:07:19.611Z,1.97
2023-01-13T01:09:48.318Z,4.17
2023-01-13T01:12:18.715Z,2.00
2023-01-13T01:14:52.132Z,2.93
2023-01-13T01:17:20.311Z,4.80
2023-01-13T01:19:48.403Z,6.20
2023-01-13T01:22:18.989Z,3.43
2023-01-13T01:24:50.767Z,6.83
2023-01-13T01:27:27.072Z,6.10
2023-01-13T01:29:55.778Z,3.40
2023-01-13T01:32:25.430Z,6.73
2023-01-13T01:34:53.555Z,4.87
2023-01-13T01:37:25.895Z,5.17
2023-01-13T01:39:54.473Z,3.17
2023-01-13T01:42:41.126Z,6.13
2023-01-13T01:45:18.798Z,11.10
2023-01-13T01:47:49.331Z,6.60
2023-01-13T01:50:19.716Z,7.67
2023-01-13T01:52:55.068Z,7.70
2023-01-13T01:55:30.449Z,6.90
2023-01-13T01:58:03.293Z,6.50
2023-01-13T02:00:38.746Z,8.00
2023-01-13T02:03:08.648Z,9.03
2023-01-13T02:05:39.300Z,9.50
2023-01-13T02:08:10.805Z,12.40
2023-01-13T02:10:41.069Z,6.07
2023-01-13T02:13:12.296Z,10.63
2023-01-13T02:15:52.040Z,7.80
2023-01-13T02:18:39.802Z,5.87
2023-01-13T02:21:41.469Z,10.37
2023-01-13T02:25:00.384Z,7.70
2023-01-13T02:27:54.145Z,14.37
2023-01-13T02:31:04.886Z,4.30
2023-01-13T02:33:50.524Z,5.63
2023-01-13T02:36:28.398Z,7.47
2023-01-13T02:39:04.057Z,7.83
2023-01-13T02:42:00.064Z,5.63
2023-01-13T02:44:37.465Z,9.37
2023-01-13T02:47:23.489Z,5.83
2023-01-13T02:49:57.306Z,7.93
2023-01-13T02:52:30.988Z,6.13
2023-01-13T02:55:05.552Z,7.00
2023-01-13T02:57:36.609Z,11.90
2023-01-13T03:00:08.101Z,4.40
2023-01-13T03:02:40.862Z,5.60
2023-01-13T03:05:14.539Z,6.73
2023-01-13T03:08:17.728Z,5.63
2023-01-13T03:10:58.155Z,5.13
2023-01-13T03:13:48.050Z,2.60
2023-01-13T03:16:24.726Z,2.27
2023-01-13T03:19:06.045Z,5.37
2023-01-13T03:21:44.112Z,5.93
2023-01-13T03:24:18.192Z,4.00
2023-01-13T03:26:50.124Z,3.40
2023-01-13T03:29:22.814Z,6.50
2023-01-13T03:31:57.918Z,13.30
2023-01-13T03:34:34.102Z,5.97
2023-01-13T03:37:07.027Z,6.33
2023-01-13T03:39:39.439Z,8.83
2023-01-13T03:42:13.057Z,6.70
2023-01-13T03:44:44.106Z,5.53
2023-01-13T03:47:22.204Z,5.10
2023-01-13T03:49:55.795Z,10.30
2023-01-13T03:52:28.094Z,8.00
2023-01-13T03:55:05.923Z,8.97
2023-01-13T03:58:02.186Z,14.50
2023-01-13T04:00:38.978Z,8.47
2023-01-13T04:03:10.624Z,8.27
2023-01-13T04:05:44.932Z,8.90
2023-01-13T04:08:19.903Z,4.20
2023-01-13T04:10:55.013Z,5.53
2023-01-13T04:13:26.812Z,8.53
2023-01-13T04:15:56.283Z,14.60
2023-01-13T04:18:27.395Z,6.23
2023-01-13T04:21:05.680Z,6.63
2023-01-13T04:23:37.085Z,5.00
2023-01-13T04:26:05.196Z,10.00
2023-01-13T04:28:34.852Z,9.80
2023-01-13T04:31:03.881Z,5.40
2023-01-13T04:33:31.944Z,10.17
2023-01-13T04:36:04.729Z,6.03
2023-01-13T04:38:32.761Z,8.93
2023-01-13T04:41:00.760Z,7.43
2023-01-13T04:43:29.609Z,10.87
2023-01-13T04:45:57.855Z,11.13
2023-01-13T04:48:26.395Z,7.23
2023-01-13T04:50:55.443Z,7.50
2023-01-13T04:53:34.620Z,9.83
2023-01-13T04:56:05.478Z,7.37
2023-01-13T04:58:39.681Z,10.20
2023-01-13T05:01:08.625Z,6.13
2023-01-13T05:03:38.860Z,11.00
2023-01-13T05:06:08.259Z,6.90
2023-01-13T05:08:38.044Z,8.87
2023-01-13T05:11:26.496Z,10.23
2023-01-13T05:14:13.007Z,12.40
2023-01-13T05:16:58.379Z,12.63
2023-01-13T05:19:26.648Z,5.60
2023-01-13T05:22:15.869Z,19.63
2023-01-13T05:25:04.235Z,8.43
2023-01-13T05:27:32.715Z,16.40
2023-01-13T05:30:00.913Z,17.47
2023-01-13T05:32:32.273Z,13.83
2023-01-13T05:35:00.899Z,26.97
2023-01-13T05:37:29.801Z,16.57
2023-01-13T05:40:19.612Z,13.87
2023-01-13T05:43:04.961Z,12.53
2023-01-13T05:45:33.536Z,9.73
2023-01-13T05:48:01.572Z,11.00
2023-01-13T05:50:30.874Z,8.03
2023-01-13T05:53:06.730Z,14.70
2023-01-13T05:55:38.863Z,16.00
2023-01-13T05:58:08.616Z,6.37
2023-01-13T06:00:37.428Z,10.80
2023-01-13T06:03:06.193Z,8.53
2023-01-13T06:05:37.667Z,4.80
2023-01-13T06:08:15.922Z,20.77
2023-01-13T06:10:47.820Z,6.80
2023-01-13T06:13:19.561Z,7.70
2023-01-13T06:15:47.598Z,12.53
2023-01-13T06:18:18.731Z,9.90
2023-01-13T06:20:50.791Z,8.43
2023-01-13T06:23:19.971Z,6.77
2023-01-13T06:25:59.464Z,14.27
2023-01-13T06:28:28.073Z,12.20
2023-01-13T06:30:59.992Z,9.57
2023-01-13T06:33:31.291Z,10.00
2023-01-13T06:36:05.476Z,7.27
2023-01-13T06:38:49.684Z,7.67
2023-01-13T06:41:41.197Z,14.13
2023-01-13T06:44:09.399Z,7.93
2023-01-13T06:46:38.284Z,10.33
2023-01-13T06:49:06.960Z,12.67
2023-01-13T06:51:37.880Z,9.03
2023-01-13T06:54:06.376Z,11.50
2023-01-13T06:56:37.130Z,15.83
2023-01-13T06:59:05.573Z,8.57
2023-01-13T07:01:41.089Z,10.97
2023-01-13T07:04:09.315Z,13.70
2023-01-13T07:06:39.681Z,12.63
2023-01-13T07:09:10.592Z,12.33
2023-01-13T07:11:42.584Z,10.53
2023-01-13T07:14:28.998Z,12.27
2023-01-13T07:16:56.989Z,12.03
2023-01-13T07:19:25.444Z,18.20
2023-01-13T07:21:55.427Z,15.53
2023-01-13T07:24:26.304Z,10.70
2023-01-13T07:26:56.805Z,16.10
2023-01-13T07:29:27.726Z,7.57
2023-01-13T07:31:56.377Z,11.37
2023-01-13T07:34:24.582Z,9.40
2023-01-13T07:36:53.223Z,10.27
2023-01-13T07:39:21.487Z,5.17
2023-01-13T07:42:07.325Z,9.13
2023-01-13T07:44:36.762Z,9.70
2023-01-13T07:47:08.744Z,9.53
2023-01-13T07:49:37.126Z,10.87
2023-01-13T07:52:05.585Z,8.80
2023-01-13T07:54:41.027Z,12.73
2023-01-13T07:57:10.536Z,11.37
2023-01-13T07:59:47.154Z,13.13
2023-01-13T08:02:15.839Z,12.50
2023-01-13T08:04:44.001Z,10.33
2023-01-13T08:07:12.982Z,10.53
2023-01-13T08:09:41.019Z,17.20
2023-01-13T08:12:27.833Z,5.20
2023-01-13T08:14:57.947Z,8.60
2023-01-13T08:17:28.332Z,9.83
2023-01-13T08:19:56.551Z,8.07
2023-01-13T08:22:24.641Z,13.00
2023-01-13T08:24:53.818Z,4.50
2023-01-13T08:27:21.791Z,10.70
2023-01-13T08:29:50.278Z,16.43
2023-01-13T08:32:27.925Z,10.00
2023-01-13T08:34:55.957Z,9.57
2023-01-13T08:37:26.305Z,9.90
2023-01-13T08:39:55.253Z,7.90
2023-01-13T08:42:23.648Z,11.70
2023-01-13T08:44:54.345Z,6.03
2023-01-13T08:47:28.041Z,7.77
2023-01-13T08:49:59.258Z,13.13
2023-01-13T08:52:27.686Z,13.10
2023-01-13T08:54:55.725Z,12.00
2023-01-13T08:57:25.010Z,17.67
2023-01-13T08:59:53.514Z,19.03
2023-01-13T09:02:24.619Z,5.13
2023-01-13T09:04:56.278Z,6.53
2023-01-13T09:07:28.099Z,11.63
2023-01-13T09:09:56.862Z,11.43
2023-01-13T09:12:43.271Z,17.27
2023-01-13T09:15:15.040Z,14.00
2023-01-13T09:17:44.374Z,15.53
2023-01-13T09:20:16.773Z,9.97
2023-01-13T09:22:47.791Z,19.57
2023-01-13T09:25:16.520Z,9.60
2023-01-13T09:27:44.542Z,14.00
2023-01-13T09:30:15.722Z,14.47
2023-01-13T09:32:47.636Z,9.93
2023-01-13T09:35:14.686Z,8.17
2023-01-13T09:37:45.119Z,10.33
2023-01-13T09:40:18.326Z,13.73
2023-01-13T09:43:09.277Z,18.97
2023-01-13T09:45:42.623Z,8.53
2023-01-13T09:48:16.877Z,14.40
2023-01-13T09:50:58.285Z,15.63
2023-01-13T09:53:33.220Z,15.00
2023-01-13T09:56:01.647Z,17.33
2023-01-13T09:58:32.121Z,15.77
2023-01-13T10:01:10.864Z,9.87
2023-01-13T10:03:40.907Z,11.53
2023-01-13T10:06:14.558Z,12.10
2023-01-13T10:08:44.557Z,14.77
2023-01-13T10:11:34.288Z,14.80
2023-01-13T10:14:05.603Z,27.67
2023-01-13T10:16:42.859Z,13.27
2023-01-13T10:19:27.970Z,14.40
2023-01-13T10:22:11.867Z,10.97
2023-01-13T10:25:08.552Z,18.10
2023-01-13T10:27:40.724Z,18.77
2023-01-13T10:30:21.561Z,16.23
2023-01-13T10:32:54.604Z,16.20
2023-01-13T10:35:56.736Z,20.17
2023-01-13T10:38:29.720Z,17.93
2023-01-13T10:41:02.763Z,13.23
2023-01-13T10:43:34.138Z,13.40
2023-01-13T10:46:05.381Z,15.03
2023-01-13T10:48:39.428Z,11.57
2023-01-13T10:51:24.012Z,22.80
2023-01-13T10:53:56.519Z,14.47
2023-01-13T10:56:30.007Z,16.40
2023-01-13T10:59:16.569Z,15.93
2023-01-13T11:01:58.803Z,20.00
2023-01-13T11:04:31.361Z,23.93
2023-01-13T11:07:02.972Z,15.23
2023-01-13T11:09:32.385Z,14.43
2023-01-13T11:12:02.961Z,21.67
2023-01-13T11:14:39.429Z,20.20
2023-01-13T11:17:27.472Z,14.27
2023-01-13T11:20:03.952Z,13.80
2023-01-13T11:22:38.096Z,11.63
2023-01-13T11:25:10.912Z,22.97
2023-01-13T11:27:47.643Z,13.17
2023-01-13T11:30:26.758Z,16.73
2023-01-13T11:33:05.341Z,15.17
2023-01-13T11:35:36.900Z,22.60
2023-01-13T11:38:21.398Z,10.50
2023-01-13T11:40:51.709Z,10.67
2023-01-13T11:43:27.900Z,12.03
2023-01-13T11:45:59.460Z,10.20
2023-01-13T11:48:30.913Z,13.73
2023-01-13T11:51:09.327Z,10.20
2023-01-13T11:53:56.351Z,9.30
2023-01-13T11:56:53.329Z,17.50
2023-01-13T11:59:47.690Z,11.57
2023-01-13T12:02:25.456Z,18.93
2023-01-13T12:05:04.051Z,15.50
2023-01-13T12:07:42.628Z,12.67
2023-01-13T12:10:26.507Z,16.37
2023-01-13T12:13:01.198Z,17.80
2023-01-13T12:16:08.349Z,17.27
2023-01-13T12:19:14.996Z,19.93
2023-01-13T12:22:03.220Z,13.60
2023-01-13T12:24:43.772Z,13.30
2023-01-13T12:27:22.246Z,12.63
2023-01-13T12:29:55.255Z,16.80
2023-01-13T12:32:36.529Z,13.33
2023-01-13T12:35:23.793Z,16.93
2023-01-13T12:37:59.308Z,13.47
2023-01-13T12:40:41.629Z,14.13
2023-01-13T12:43:34.631Z,9.80
2023-01-13T12:46:57.182Z,15.37
2023-01-13T12:49:32.742Z,17.93
2023-01-13T12:52:14.898Z,22.10
2023-01-13T12:55:18.438Z,17.87
2023-01-13T12:58:18.539Z,14.00
2023-01-13T13:01:02.227Z,13.87
2023-01-13T13:03:37.894Z,25.27
2023-01-13T13:06:17.283Z,12.50
2023-01-13T13:08:53.816Z,8.20
2023-01-13T13:11:54.031Z,8.53
2023-01-13T13:15:02.251Z,7.23
2023-01-13T13:17:46.386Z,6.33
2023-01-13T13:20:53.844Z,10.10
2023-01-13T13:24:00.686Z,7.60
2023-01-13T13:26:45.723Z,2.93
2023-01-13T13:29:27.713Z,5.03
2023-01-13T13:32:32.991Z,3.43
2023-01-13T13:35:34.876Z,7.97
2023-01-13T13:38:35.506Z,5.27
2023-01-13T13:41:32.337Z,6.07
2023-01-13T13:44:21.364Z,8.57
2023-01-13T13:46:50.305Z,7.17
2023-01-13T13:49:20.399Z,13.27
2023-01-13T13:51:59.387Z,19.80
2023-01-13T13:54:28.034Z,7.60
2023-01-13T13:56:59.308Z,19.20
2023-01-13T13:59:30.541Z,12.43
2023-01-13T14:02:04.164Z,11.33
2023-01-13T14:04:36.722Z,18.23
2023-01-13T14:07:21.224Z,13.47
2023-01-13T14:09:53.672Z,12.33
2023-01-13T14:12:24.419Z,7.00
2023-01-13T14:14:55.854Z,11.00
2023-01-13T14:17:26.662Z,8.67
2023-01-13T14:19:58.875Z,10.83
2023-01-13T14:22:29.311Z,10.10
2023-01-13T14:24:58.004Z,20.33
2023-01-13T14:27:28.273Z,14.83
2023-01-13T14:29:59.074Z,19.93
2023-01-13T14:32:36.457Z,13.20
2023-01-13T14:35:10.445Z,9.43
2023-01-13T14:37:42.036Z,15.93
2023-01-13T14:40:44.578Z,14.20
2023-01-13T14:43:21.654Z,10.83
2023-01-13T14:45:58.625Z,4.87
2023-01-13T14:48:35.582Z,14.67
2023-01-13T14:51:06.515Z,16.03
2023-01-13T14:53:43.450Z,13.33
2023-01-13T14:56:37.529Z,7.43
2023-01-13T14:59:34.717Z,15.87
2023-01-13T15:02:26.480Z,21.27
2023-01-13T15:04:55.312Z,12.00
2023-01-13T15:07:26.927Z,14.30
2023-01-13T15:10:04.033Z,16.07
2023-01-13T15:12:37.752Z,7.73
2023-01-13T15:15:22.196Z,17.80
2023-01-13T15:17:50.304Z,10.57
2023-01-13T15:20:20.713Z,10.20
2023-01-13T15:22:49.793Z,11.50
2023-01-13T15:25:20.118Z,11.90
2023-01-13T15:27:52.080Z,21.07
2023-01-13T15:30:25.239Z,17.27
2023-01-13T15:32:54.958Z,13.00
2023-01-13T15:35:27.038Z,13.33
2023-01-13T15:37:57.496Z,13.90
2023-01-13T15:40:30.706Z,13.93
2023-01-13T15:43:17.777Z,13.63
2023-01-13T15:46:04.651Z,9.77
2023-01-13T15:48:33.863Z,14.77
2023-01-13T15:51:04.669Z,19.90
2023-01-13T15:53:36.820Z,8.10
2023-01-13T15:56:16.111Z,13.27
2023-01-13T15:58:47.548Z,15.03
2023-01-13T16:01:19.001Z,14.70
2023-01-13T16:03:50.048Z,17.27
2023-01-13T16:06:22.151Z,12.77
2023-01-13T16:08:52.737Z,14.03
2023-01-13T16:11:23.044Z,19.40
2023-01-13T16:13:58.542Z,7.73
2023-01-13T16:16:29.284Z,18.57
2023-01-13T16:18:58.437Z,12.10
2023-01-13T16:21:27.145Z,18.43
2023-01-13T16:23:58.197Z,11.53
2023-01-13T16:26:32.256Z,12.47
2023-01-13T16:29:01.129Z,17.53
2023-01-13T16:31:31.861Z,20.50
2023-01-13T16:34:04.229Z,11.70
2023-01-13T16:36:36.064Z,16.63
2023-01-13T16:39:06.244Z,12.23
2023-01-13T16:41:36.225Z,9.33
2023-01-13T16:44:06.281Z,10.10
2023-01-13T16:46:35.128Z,18.63
2023-01-13T16:49:06.315Z,13.07
2023-01-13T16:51:34.555Z,18.57
2023-01-13T16:54:02.604Z,9.80
2023-01-13T16:56:40.588Z,14.00
2023-01-13T16:59:12.101Z,10.10
2023-01-13T17:01:45.042Z,11.70
2023-01-13T17:04:16.885Z,11.83
2023-01-13T17:06:53.417Z,17.43
2023-01-13T17:09:23.663Z,18.47
2023-01-13T17:11:54.976Z,9.63
2023-01-13T17:14:25.076Z,13.50
2023-01-13T17:16:55.453Z,23.40
2023-01-13T17:19:26.275Z,13.03
2023-01-13T17:21:54.343Z,17.50
2023-01-13T17:24:24.649Z,19.90
2023-01-13T17:26:55.285Z,15.30
2023-01-13T17:29:27.687Z,16.37
2023-01-13T17:31:56.911Z,8.93
2023-01-13T17:34:25.041Z,18.10
2023-01-13T17:36:53.065Z,16.87
2023-01-13T17:39:23.914Z,14.67
2023-01-13T17:41:52.692Z,13.97
2023-01-13T17:47:13.728Z,17.93
2023-01-13T17:49:42.209Z,28.00
2023-01-13T17:52:12.450Z,13.67
2023-01-13T17:54:43.588Z,8.47
2023-01-13T17:57:12.039Z,11.13
2023-01-13T17:59:42.767Z,17.63
2023-01-13T18:02:15.915Z,11.03
2023-01-13T18:04:45.535Z,10.93
2023-01-13T18:07:13.588Z,11.60
2023-01-13T18:09:42.168Z,20.80
2023-01-13T18:14:57.611Z,14.60
2023-01-13T18:17:26.468Z,10.80
2023-01-13T18:20:12.525Z,10.10
2023-01-13T18:23:00.158Z,8.93
2023-01-13T18:25:45.480Z,19.50
2023-01-13T18:28:16.684Z,13.07
2023-01-13T18:30:48.750Z,20.07
2023-01-13T18:33:17.389Z,16.90
2023-01-13T18:35:53.280Z,11.60
2023-01-13T18:38:21.988Z,13.23
2023-01-13T18:40:50.083Z,12.27
2023-01-13T18:43:17.103Z,12.30
2023-01-13T18:45:51.612Z,8.20
2023-01-13T18:48:19.698Z,16.50
2023-01-13T18:50:50.187Z,16.53
2023-01-13T18:53:18.899Z,10.50
2023-01-13T18:55:46.917Z,11.00
2023-01-13T18:58:18.535Z,22.00
2023-01-13T19:00:48.313Z,12.37
2023-01-13T19:03:29.617Z,20.63
2023-01-13T19:06:04.432Z,16.80
2023-01-13T19:08:33.980Z,16.57
2023-01-13T19:11:05.382Z,20.67
2023-01-13T19:13:35.799Z,18.00
2023-01-13T19:16:12.674Z,10.60
2023-01-13T19:18:40.919Z,9.70
2023-01-13T19:21:09.169Z,19.93
2023-01-13T19:23:40.696Z,17.63
2023-01-13T19:26:11.362Z,17.30
2023-01-13T19:28:41.624Z,12.53
2023-01-13T19:31:12.321Z,18.13
2023-01-13T19:33:41.836Z,11.97
2023-01-13T19:36:11.332Z,15.00
2023-01-13T19:38:41.948Z,13.63
2023-01-13T19:41:29.391Z,8.17
2023-01-13T19:44:15.929Z,13.87
2023-01-13T19:46:47.037Z,17.90
2023-01-13T19:49:15.057Z,17.57
2023-01-13T19:51:43.250Z,10.17
2023-01-13T19:54:13.794Z,14.20
2023-01-13T19:56:44.085Z,18.57
2023-01-13T19:59:13.673Z,6.90
2023-01-13T20:01:41.826Z,14.47
2023-01-13T20:04:14.472Z,9.63
2023-01-13T20:06:42.567Z,10.63
2023-01-13T20:09:11.411Z,22.50
2023-01-13T20:11:39.862Z,19.53
2023-01-13T20:14:08.042Z,19.40
2023-01-13T20:16:36.079Z,11.93
2023-01-13T20:19:04.545Z,13.77
2023-01-13T20:21:35.009Z,18.43
2023-01-13T20:24:03.319Z,16.27
2023-01-13T20:26:31.979Z,22.43
2023-01-13T20:29:04.603Z,12.13
2023-01-13T20:31:33.638Z,15.20
2023-01-13T20:34:02.099Z,9.90
2023-01-13T20:36:33.427Z,19.07
2023-01-13T20:39:05.730Z,12.33
2023-01-13T20:41:51.104Z,18.57
2023-01-13T20:44:29.695Z,13.53
2023-01-13T20:46:59.061Z,19.67
2023-01-13T20:49:30.662Z,11.23
2023-01-13T20:51:59.316Z,10.00
2023-01-13T20:54:33.937Z,17.40
2023-01-13T20:57:02.328Z,21.97
2023-01-13T20:59:33.974Z,14.27
2023-01-13T21:02:02.825Z,14.87
2023-01-13T21:04:38.477Z,6.90
2023-01-13T21:07:11.298Z,10.30
2023-01-13T21:09:43.501Z,16.77
2023-01-13T21:12:34.191Z,12.70
2023-01-13T21:15:20.211Z,13.37
2023-01-13T21:18:09.669Z,8.77
2023-01-13T21:20:39.112Z,19.60
2023-01-13T21:23:08.413Z,16.57
2023-01-13T21:25:40.067Z,19.43
2023-01-13T21:28:11.119Z,21.93
2023-01-13T21:30:40.325Z,14.13
2023-01-13T21:33:08.345Z,12.43
2023-01-13T21:35:39.221Z,16.53
2023-01-13T21:38:07.797Z,15.63
2023-01-13T21:40:41.676Z,21.20
2023-01-13T21:43:30.980Z,19.47
2023-01-13T21:46:31.776Z,16.27
2023-01-13T21:49:00.340Z,19.50
2023-01-13T21:51:29.187Z,26.20
2023-01-13T21:54:00.680Z,18.13
2023-01-13T21:56:30.147Z,23.47
2023-01-13T21:58:58.145Z,13.53
2023-01-13T22:01:29.243Z,19.77
2023-01-13T22:04:15.444Z,30.17
2023-01-13T22:06:43.478Z,18.33
2023-01-13T22:09:12.685Z,25.83
2023-01-13T22:11:45.267Z,25.43
2023-01-13T22:14:13.952Z,14.63
2023-01-13T22:16:49.788Z,12.73
2023-01-13T22:19:18.095Z,26.23
2023-01-13T22:21:46.210Z,15.43
2023-01-13T22:24:20.132Z,16.07
2023-01-13T22:26:51.722Z,20.57
2023-01-13T22:29:19.812Z,21.13
2023-01-13T22:31:48.710Z,20.03
2023-01-13T22:34:17.597Z,20.83
2023-01-13T22:36:45.582Z,18.77
2023-01-13T22:39:14.798Z,21.77
2023-01-13T22:41:42.813Z,20.60
2023-01-13T22:44:12.580Z,23.20
2023-01-13T22:46:41.418Z,19.07
2023-01-13T22:49:09.679Z,21.07
2023-01-13T22:51:39.781Z,20.17
2023-01-13T22:54:11.301Z,21.57
2023-01-13T22:56:44.104Z,14.67
2023-01-13T22:59:15.925Z,27.83
2023-01-13T23:01:45.069Z,26.33
2023-01-13T23:04:14.020Z,25.83
2023-01-13T23:06:42.507Z,19.80
2023-01-13T23:09:11.138Z,20.30
2023-01-13T23:11:42.956Z,21.83
2023-01-13T23:14:14.458Z,19.67
2023-01-13T23:16:46.908Z,21.07
2023-01-13T23:19:18.026Z,23.17
2023-01-13T23:21:46.261Z,21.23
2023-01-13T23:24:17.497Z,17.27
2023-01-13T23:26:47.949Z,23.30
2023-01-13T23:29:39.925Z,16.73
2023-01-13T23:32:07.999Z,24.33
2023-01-13T23:34:36.476Z,24.33
2023-01-13T23:37:05.437Z,20.30
2023-01-13T23:39:33.967Z,20.70
2023-01-13T23:42:02.118Z,23.23
2023-01-13T23:44:30.332Z,19.77
2023-01-13T23:47:03.108Z,28.00
2023-01-13T23:49:31.727Z,27.80
2023-01-13T23:51:59.766Z,18.50
2023-01-13T23:54:31.122Z,20.03
2023-01-13T23:57:00.196Z,22.13
2023-01-13T23:59:29.124Z,19.07
